sensor_id;sensor_type;location;lat;lon;timestamp;P1;durP1;ratioP1;P2;durP2;ratioP2
14599;SDS011;7386;45.586;12.854;2023-04-03T00:00:44;2.80;;;1.90;;
14599;SDS011;7386;45.586;12.854;2023-04-03T00:03:14;4.03;;;2.10;;
14599;SDS011;7386;45.586;12.854;2023-04-03T00:05:42;2.10;;;1.83;;
14599;SDS011;7386;45.586;12.854;2023-04-03T00:08:11;2.60;;;2.10;;
14599;SDS011;7386;45.586;12.854;2023-04-03T00:10:39;4.30;;;2.23;;
14599;SDS011;7386;45.586;12.854;2023-04-03T00:13:08;3.70;;;2.10;;
14599;SDS011;7386;45.586;12.854;2023-04-03T00:15:37;2.00;;;1.80;;
14599;SDS011;7386;45.586;12.854;2023-04-03T00:18:07;2.17;;;1.63;;
14599;SDS011;7386;45.586;12.854;2023-04-03T00:20:36;2.43;;;1.60;;
14599;SDS011;7386;45.586;12.854;2023-04-03T00:23:05;2.67;;;1.77;;
14599;SDS011;7386;45.586;12.854;2023-04-03T00:25:33;3.90;;;1.60;;
14599;SDS011;7386;45.586;12.854;2023-04-03T00:28:02;3.30;;;1.60;;
14599;SDS011;7386;45.586;12.854;2023-04-03T00:30:31;2.93;;;1.90;;
14599;SDS011;7386;45.586;12.854;2023-04-03T00:33:00;4.23;;;1.87;;
14599;SDS011;7386;45.586;12.854;2023-04-03T00:35:30;2.60;;;1.57;;
14599;SDS011;7386;45.586;12.854;2023-04-03T00:37:59;3.03;;;1.70;;
14599;SDS011;7386;45.586;12.854;2023-04-03T00:40:27;4.07;;;1.60;;
14599;SDS011;7386;45.586;12.854;2023-04-03T00:42:57;3.80;;;1.80;;
14599;SDS011;7386;45.586;12.854;2023-04-03T00:45:30;4.27;;;1.90;;
14599;SDS011;7386;45.586;12.854;2023-04-03T00:48:00;5.03;;;1.70;;
14599;SDS011;7386;45.586;12.854;2023-04-03T00:50:30;3.10;;;1.70;;
14599;SDS011;7386;45.586;12.854;2023-04-03T00:52:59;3.00;;;1.80;;
14599;SDS011;7386;45.586;12.854;2023-04-03T00:55:28;2.70;;;1.80;;
14599;SDS011;7386;45.586;12.854;2023-04-03T00:57:57;7.13;;;1.90;;
14599;SDS011;7386;45.586;12.854;2023-04-03T01:00:27;4.60;;;2.00;;
14599;SDS011;7386;45.586;12.854;2023-04-03T01:02:56;5.47;;;1.67;;
14599;SDS011;7386;45.586;12.854;2023-04-03T01:05:24;4.43;;;1.80;;
14599;SDS011;7386;45.586;12.854;2023-04-03T01:07:54;3.37;;;1.93;;
14599;SDS011;7386;45.586;12.854;2023-04-03T01:10:23;5.00;;;2.00;;
14599;SDS011;7386;45.586;12.854;2023-04-03T01:12:52;4.80;;;2.13;;
14599;SDS011;7386;45.586;12.854;2023-04-03T01:15:21;4.07;;;1.83;;
14599;SDS011;7386;45.586;12.854;2023-04-03T01:17:51;3.93;;;2.00;;
14599;SDS011;7386;45.586;12.854;2023-04-03T01:20:35;5.23;;;2.10;;
14599;SDS011;7386;45.586;12.854;2023-04-03T01:23:10;5.50;;;2.10;;
14599;SDS011;7386;45.586;12.854;2023-04-03T01:25:41;3.47;;;1.90;;
14599;SDS011;7386;45.586;12.854;2023-04-03T01:28:11;4.87;;;2.10;;
14599;SDS011;7386;45.586;12.854;2023-04-03T01:30:41;9.73;;;2.50;;
14599;SDS011;7386;45.586;12.854;2023-04-03T01:33:12;11.37;;;2.40;;
14599;SDS011;7386;45.586;12.854;2023-04-03T01:35:41;8.10;;;2.10;;
14599;SDS011;7386;45.586;12.854;2023-04-03T01:38:10;12.07;;;2.90;;
14599;SDS011;7386;45.586;12.854;2023-04-03T01:40:39;14.40;;;2.70;;
14599;SDS011;7386;45.586;12.854;2023-04-03T01:43:09;7.07;;;2.20;;
14599;SDS011;7386;45.586;12.854;2023-04-03T01:45:37;8.70;;;2.33;;
14599;SDS011;7386;45.586;12.854;2023-04-03T01:48:06;6.40;;;2.20;;
14599;SDS011;7386;45.586;12.854;2023-04-03T01:50:36;11.07;;;2.50;;
14599;SDS011;7386;45.586;12.854;2023-04-03T01:53:04;10.90;;;2.50;;
14599;SDS011;7386;45.586;12.854;2023-04-03T01:55:33;6.67;;;2.40;;
14599;SDS011;7386;45.586;12.854;2023-04-03T01:58:01;8.80;;;2.87;;
14599;SDS011;7386;45.586;12.854;2023-04-03T02:00:30;9.40;;;2.80;;
14599;SDS011;7386;45.586;12.854;2023-04-03T02:02:58;7.50;;;2.77;;
14599;SDS011;7386;45.586;12.854;2023-04-03T02:05:27;8.27;;;2.53;;
14599;SDS011;7386;45.586;12.854;2023-04-03T02:07:57;7.23;;;2.57;;
14599;SDS011;7386;45.586;12.854;2023-04-03T02:10:26;6.90;;;2.37;;
14599;SDS011;7386;45.586;12.854;2023-04-03T02:12:55;7.23;;;2.30;;
14599;SDS011;7386;45.586;12.854;2023-04-03T02:15:23;8.07;;;2.43;;
14599;SDS011;7386;45.586;12.854;2023-04-03T02:17:52;4.47;;;2.37;;
14599;SDS011;7386;45.586;12.854;2023-04-03T02:20:21;6.97;;;2.27;;
14599;SDS011;7386;45.586;12.854;2023-04-03T02:22:49;4.87;;;2.20;;
14599;SDS011;7386;45.586;12.854;2023-04-03T02:25:19;11.63;;;2.57;;
14599;SDS011;7386;45.586;12.854;2023-04-03T02:27:48;6.43;;;2.43;;
14599;SDS011;7386;45.586;12.854;2023-04-03T02:30:16;8.30;;;2.40;;
14599;SDS011;7386;45.586;12.854;2023-04-03T02:32:45;10.73;;;2.67;;
14599;SDS011;7386;45.586;12.854;2023-04-03T02:35:13;6.90;;;2.20;;
14599;SDS011;7386;45.586;12.854;2023-04-03T02:37:42;9.40;;;2.40;;
14599;SDS011;7386;45.586;12.854;2023-04-03T02:40:10;6.70;;;2.30;;
14599;SDS011;7386;45.586;12.854;2023-04-03T02:42:40;4.80;;;2.30;;
14599;SDS011;7386;45.586;12.854;2023-04-03T02:45:09;7.83;;;2.37;;
14599;SDS011;7386;45.586;12.854;2023-04-03T02:47:38;5.20;;;2.33;;
14599;SDS011;7386;45.586;12.854;2023-04-03T02:50:06;5.10;;;2.40;;
14599;SDS011;7386;45.586;12.854;2023-04-03T02:52:35;7.47;;;2.47;;
14599;SDS011;7386;45.586;12.854;2023-04-03T02:55:04;5.50;;;2.30;;
14599;SDS011;7386;45.586;12.854;2023-04-03T02:57:32;4.93;;;2.30;;
14599;SDS011;7386;45.586;12.854;2023-04-03T03:00:03;6.73;;;2.20;;
14599;SDS011;7386;45.586;12.854;2023-04-03T03:02:32;7.23;;;2.13;;
14599;SDS011;7386;45.586;12.854;2023-04-03T03:05:01;9.97;;;2.47;;
14599;SDS011;7386;45.586;12.854;2023-04-03T03:07:29;10.40;;;2.10;;
14599;SDS011;7386;45.586;12.854;2023-04-03T03:09:58;8.57;;;2.30;;
14599;SDS011;7386;45.586;12.854;2023-04-03T03:12:26;5.33;;;2.37;;
14599;SDS011;7386;45.586;12.854;2023-04-03T03:14:57;8.00;;;2.33;;
14599;SDS011;7386;45.586;12.854;2023-04-03T03:17:27;4.73;;;2.40;;
14599;SDS011;7386;45.586;12.854;2023-04-03T03:19:56;8.43;;;2.50;;
14599;SDS011;7386;45.586;12.854;2023-04-03T03:22:25;6.37;;;2.57;;
14599;SDS011;7386;45.586;12.854;2023-04-03T03:24:55;5.53;;;2.50;;
14599;SDS011;7386;45.586;12.854;2023-04-03T03:27:24;8.53;;;3.37;;
14599;SDS011;7386;45.586;12.854;2023-04-03T03:29:52;5.13;;;2.43;;
14599;SDS011;7386;45.586;12.854;2023-04-03T03:32:21;6.70;;;2.80;;
14599;SDS011;7386;45.586;12.854;2023-04-03T03:34:51;8.93;;;2.93;;
14599;SDS011;7386;45.586;12.854;2023-04-03T03:37:19;9.07;;;3.10;;
14599;SDS011;7386;45.586;12.854;2023-04-03T03:39:48;7.37;;;2.77;;
14599;SDS011;7386;45.586;12.854;2023-04-03T03:42:16;7.73;;;3.10;;
14599;SDS011;7386;45.586;12.854;2023-04-03T03:44:45;6.70;;;3.00;;
14599;SDS011;7386;45.586;12.854;2023-04-03T03:47:14;6.03;;;2.83;;
14599;SDS011;7386;45.586;12.854;2023-04-03T03:49:42;6.67;;;2.93;;
14599;SDS011;7386;45.586;12.854;2023-04-03T03:52:12;11.20;;;3.43;;
14599;SDS011;7386;45.586;12.854;2023-04-03T03:54:41;9.93;;;3.40;;
14599;SDS011;7386;45.586;12.854;2023-04-03T03:57:09;11.67;;;3.17;;
14599;SDS011;7386;45.586;12.854;2023-04-03T03:59:38;10.30;;;3.43;;
14599;SDS011;7386;45.586;12.854;2023-04-03T04:02:08;7.90;;;3.27;;
14599;SDS011;7386;45.586;12.854;2023-04-03T04:04:36;12.50;;;3.10;;
14599;SDS011;7386;45.586;12.854;2023-04-03T04:07:05;8.00;;;2.87;;
14599;SDS011;7386;45.586;12.854;2023-04-03T04:09:35;12.17;;;3.40;;
14599;SDS011;7386;45.586;12.854;2023-04-03T04:12:03;7.80;;;3.50;;
14599;SDS011;7386;45.586;12.854;2023-04-03T04:14:32;10.80;;;3.37;;
14599;SDS011;7386;45.586;12.854;2023-04-03T04:17:00;11.97;;;3.80;;
14599;SDS011;7386;45.586;12.854;2023-04-03T04:19:29;8.97;;;3.50;;
14599;SDS011;7386;45.586;12.854;2023-04-03T04:21:59;13.60;;;4.20;;
14599;SDS011;7386;45.586;12.854;2023-04-03T04:24:27;10.20;;;3.40;;
14599;SDS011;7386;45.586;12.854;2023-04-03T04:26:57;12.80;;;3.30;;
14599;SDS011;7386;45.586;12.854;2023-04-03T04:29:26;15.33;;;3.70;;
14599;SDS011;7386;45.586;12.854;2023-04-03T04:31:54;9.20;;;3.70;;
14599;SDS011;7386;45.586;12.854;2023-04-03T04:34:23;8.97;;;3.70;;
14599;SDS011;7386;45.586;12.854;2023-04-03T04:36:51;12.23;;;3.50;;
14599;SDS011;7386;45.586;12.854;2023-04-03T04:39:20;8.90;;;4.10;;
14599;SDS011;7386;45.586;12.854;2023-04-03T04:41:49;9.23;;;3.87;;
14599;SDS011;7386;45.586;12.854;2023-04-03T04:44:19;11.43;;;3.67;;
14599;SDS011;7386;45.586;12.854;2023-04-03T04:46:47;12.47;;;3.87;;
14599;SDS011;7386;45.586;12.854;2023-04-03T04:49:16;8.80;;;3.73;;
14599;SDS011;7386;45.586;12.854;2023-04-03T04:51:44;9.50;;;4.20;;
14599;SDS011;7386;45.586;12.854;2023-04-03T04:54:17;11.20;;;4.43;;
14599;SDS011;7386;45.586;12.854;2023-04-03T04:56:46;9.83;;;4.27;;
14599;SDS011;7386;45.586;12.854;2023-04-03T04:59:15;13.43;;;4.30;;
14599;SDS011;7386;45.586;12.854;2023-04-03T05:01:48;10.63;;;4.20;;
14599;SDS011;7386;45.586;12.854;2023-04-03T05:04:16;10.57;;;3.90;;
14599;SDS011;7386;45.586;12.854;2023-04-03T05:06:45;13.40;;;4.27;;
14599;SDS011;7386;45.586;12.854;2023-04-03T05:09:14;14.03;;;3.93;;
14599;SDS011;7386;45.586;12.854;2023-04-03T05:11:42;8.53;;;3.90;;
14599;SDS011;7386;45.586;12.854;2023-04-03T05:14:10;9.60;;;4.27;;
14599;SDS011;7386;45.586;12.854;2023-04-03T05:16:39;11.73;;;4.00;;
14599;SDS011;7386;45.586;12.854;2023-04-03T05:19:09;8.23;;;4.00;;
14599;SDS011;7386;45.586;12.854;2023-04-03T05:21:37;11.53;;;4.07;;
14599;SDS011;7386;45.586;12.854;2023-04-03T05:24:06;9.10;;;4.50;;
14599;SDS011;7386;45.586;12.854;2023-04-03T05:26:35;11.13;;;4.57;;
14599;SDS011;7386;45.586;12.854;2023-04-03T05:29:04;19.47;;;4.47;;
14599;SDS011;7386;45.586;12.854;2023-04-03T05:31:32;14.23;;;4.20;;
14599;SDS011;7386;45.586;12.854;2023-04-03T05:34:01;11.47;;;4.10;;
14599;SDS011;7386;45.586;12.854;2023-04-03T05:36:31;10.00;;;4.00;;
14599;SDS011;7386;45.586;12.854;2023-04-03T05:39:00;17.23;;;3.83;;
14599;SDS011;7386;45.586;12.854;2023-04-03T05:41:29;12.57;;;3.50;;
14599;SDS011;7386;45.586;12.854;2023-04-03T05:43:57;18.50;;;4.07;;
14599;SDS011;7386;45.586;12.854;2023-04-03T05:46:26;16.27;;;4.60;;
14599;SDS011;7386;45.586;12.854;2023-04-03T05:48:54;13.27;;;3.73;;
14599;SDS011;7386;45.586;12.854;2023-04-03T05:51:24;14.20;;;3.70;;
14599;SDS011;7386;45.586;12.854;2023-04-03T05:53:56;14.00;;;4.27;;
14599;SDS011;7386;45.586;12.854;2023-04-03T05:56:27;14.47;;;4.20;;
14599;SDS011;7386;45.586;12.854;2023-04-03T05:58:55;13.50;;;4.40;;
14599;SDS011;7386;45.586;12.854;2023-04-03T06:01:23;14.27;;;4.10;;
14599;SDS011;7386;45.586;12.854;2023-04-03T06:03:52;19.00;;;4.33;;
14599;SDS011;7386;45.586;12.854;2023-04-03T06:06:22;22.97;;;4.23;;
14599;SDS011;7386;45.586;12.854;2023-04-03T06:08:50;18.27;;;4.40;;
14599;SDS011;7386;45.586;12.854;2023-04-03T06:11:20;13.60;;;4.30;;
14599;SDS011;7386;45.586;12.854;2023-04-03T06:13:49;19.40;;;4.23;;
14599;SDS011;7386;45.586;12.854;2023-04-03T06:16:17;12.37;;;4.27;;
14599;SDS011;7386;45.586;12.854;2023-04-03T06:18:46;23.20;;;4.07;;
14599;SDS011;7386;45.586;12.854;2023-04-03T06:21:15;22.00;;;4.43;;
14599;SDS011;7386;45.586;12.854;2023-04-03T06:23:43;22.87;;;4.10;;
14599;SDS011;7386;45.586;12.854;2023-04-03T06:26:12;15.73;;;4.20;;
14599;SDS011;7386;45.586;12.854;2023-04-03T06:28:42;20.93;;;5.87;;
14599;SDS011;7386;45.586;12.854;2023-04-03T06:31:10;14.10;;;4.07;;
14599;SDS011;7386;45.586;12.854;2023-04-03T06:33:39;15.67;;;4.00;;
14599;SDS011;7386;45.586;12.854;2023-04-03T06:36:09;18.57;;;3.90;;
14599;SDS011;7386;45.586;12.854;2023-04-03T06:38:38;32.93;;;5.27;;
14599;SDS011;7386;45.586;12.854;2023-04-03T06:41:07;34.90;;;4.87;;
14599;SDS011;7386;45.586;12.854;2023-04-03T06:43:36;20.67;;;4.33;;
14599;SDS011;7386;45.586;12.854;2023-04-03T06:46:06;15.77;;;3.53;;
14599;SDS011;7386;45.586;12.854;2023-04-03T06:48:34;21.57;;;4.40;;
14599;SDS011;7386;45.586;12.854;2023-04-03T06:51:03;50.17;;;5.80;;
14599;SDS011;7386;45.586;12.854;2023-04-03T06:53:31;28.10;;;5.20;;
14599;SDS011;7386;45.586;12.854;2023-04-03T06:56:00;27.50;;;4.93;;
14599;SDS011;7386;45.586;12.854;2023-04-03T06:58:28;30.50;;;5.00;;
14599;SDS011;7386;45.586;12.854;2023-04-03T07:00:57;27.13;;;4.93;;
14599;SDS011;7386;45.586;12.854;2023-04-03T07:03:27;23.67;;;4.57;;
14599;SDS011;7386;45.586;12.854;2023-04-03T07:05:56;30.70;;;4.87;;
14599;SDS011;7386;45.586;12.854;2023-04-03T07:08:24;37.30;;;5.13;;
14599;SDS011;7386;45.586;12.854;2023-04-03T07:10:53;24.40;;;5.40;;
14599;SDS011;7386;45.586;12.854;2023-04-03T07:13:21;16.00;;;4.37;;
14599;SDS011;7386;45.586;12.854;2023-04-03T07:15:50;29.33;;;4.60;;
14599;SDS011;7386;45.586;12.854;2023-04-03T07:18:19;33.17;;;5.37;;
14599;SDS011;7386;45.586;12.854;2023-04-03T07:20:49;33.27;;;5.97;;
14599;SDS011;7386;45.586;12.854;2023-04-03T07:23:17;25.10;;;4.70;;
14599;SDS011;7386;45.586;12.854;2023-04-03T07:25:46;34.10;;;5.17;;
14599;SDS011;7386;45.586;12.854;2023-04-03T07:28:15;32.73;;;5.60;;
14599;SDS011;7386;45.586;12.854;2023-04-03T07:30:44;23.13;;;4.63;;
14599;SDS011;7386;45.586;12.854;2023-04-03T07:33:14;31.13;;;5.13;;
14599;SDS011;7386;45.586;12.854;2023-04-03T07:35:43;38.93;;;5.40;;
14599;SDS011;7386;45.586;12.854;2023-04-03T07:38:13;30.57;;;5.20;;
14599;SDS011;7386;45.586;12.854;2023-04-03T07:40:45;28.70;;;4.40;;
14599;SDS011;7386;45.586;12.854;2023-04-03T07:43:13;33.97;;;5.53;;
14599;SDS011;7386;45.586;12.854;2023-04-03T07:45:42;45.83;;;5.63;;
14599;SDS011;7386;45.586;12.854;2023-04-03T07:48:11;34.37;;;5.30;;
14599;SDS011;7386;45.586;12.854;2023-04-03T07:50:40;45.83;;;5.23;;
14599;SDS011;7386;45.586;12.854;2023-04-03T07:53:08;24.03;;;5.13;;
14599;SDS011;7386;45.586;12.854;2023-04-03T07:55:39;39.80;;;5.63;;
14599;SDS011;7386;45.586;12.854;2023-04-03T07:58:10;49.80;;;5.53;;
14599;SDS011;7386;45.586;12.854;2023-04-03T08:00:39;40.53;;;5.00;;
14599;SDS011;7386;45.586;12.854;2023-04-03T08:03:09;37.63;;;5.10;;
14599;SDS011;7386;45.586;12.854;2023-04-03T08:05:39;27.07;;;5.37;;
14599;SDS011;7386;45.586;12.854;2023-04-03T08:08:08;29.57;;;5.20;;
14599;SDS011;7386;45.586;12.854;2023-04-03T08:10:37;30.37;;;4.77;;
14599;SDS011;7386;45.586;12.854;2023-04-03T08:13:07;33.43;;;5.50;;
14599;SDS011;7386;45.586;12.854;2023-04-03T08:15:36;34.63;;;5.70;;
14599;SDS011;7386;45.586;12.854;2023-04-03T08:18:04;30.13;;;4.70;;
14599;SDS011;7386;45.586;12.854;2023-04-03T08:20:33;27.37;;;5.00;;
14599;SDS011;7386;45.586;12.854;2023-04-03T08:23:01;23.00;;;4.27;;
14599;SDS011;7386;45.586;12.854;2023-04-03T08:25:30;27.80;;;4.93;;
14599;SDS011;7386;45.586;12.854;2023-04-03T08:27:58;26.70;;;5.00;;
14599;SDS011;7386;45.586;12.854;2023-04-03T08:30:29;30.63;;;5.40;;
14599;SDS011;7386;45.586;12.854;2023-04-03T08:32:59;31.30;;;4.70;;
14599;SDS011;7386;45.586;12.854;2023-04-03T08:35:28;27.50;;;4.90;;
14599;SDS011;7386;45.586;12.854;2023-04-03T08:37:58;19.90;;;4.00;;
14599;SDS011;7386;45.586;12.854;2023-04-03T08:40:27;25.80;;;4.73;;
14599;SDS011;7386;45.586;12.854;2023-04-03T08:42:59;19.30;;;4.87;;
14599;SDS011;7386;45.586;12.854;2023-04-03T08:45:35;24.07;;;5.30;;
14599;SDS011;7386;45.586;12.854;2023-04-03T08:48:07;17.63;;;4.47;;
14599;SDS011;7386;45.586;12.854;2023-04-03T08:50:38;26.70;;;6.43;;
14599;SDS011;7386;45.586;12.854;2023-04-03T08:53:10;21.17;;;5.43;;
14599;SDS011;7386;45.586;12.854;2023-04-03T08:55:42;29.97;;;5.30;;
14599;SDS011;7386;45.586;12.854;2023-04-03T08:58:11;29.80;;;6.23;;
14599;SDS011;7386;45.586;12.854;2023-04-03T09:00:43;24.70;;;7.13;;
14599;SDS011;7386;45.586;12.854;2023-04-03T09:03:13;21.40;;;5.27;;
14599;SDS011;7386;45.586;12.854;2023-04-03T09:05:43;20.67;;;4.77;;
14599;SDS011;7386;45.586;12.854;2023-04-03T09:08:16;26.83;;;8.10;;
14599;SDS011;7386;45.586;12.854;2023-04-03T09:10:47;26.33;;;6.87;;
14599;SDS011;7386;45.586;12.854;2023-04-03T09:13:19;24.60;;;4.93;;
14599;SDS011;7386;45.586;12.854;2023-04-03T09:15:53;24.77;;;9.93;;
14599;SDS011;7386;45.586;12.854;2023-04-03T09:18:23;26.90;;;9.10;;
14599;SDS011;7386;45.586;12.854;2023-04-03T09:20:54;28.47;;;6.83;;
14599;SDS011;7386;45.586;12.854;2023-04-03T09:23:26;26.30;;;6.07;;
14599;SDS011;7386;45.586;12.854;2023-04-03T09:25:58;20.37;;;7.20;;
14599;SDS011;7386;45.586;12.854;2023-04-03T09:28:30;20.87;;;5.77;;
14599;SDS011;7386;45.586;12.854;2023-04-03T09:31:18;33.43;;;7.77;;
14599;SDS011;7386;45.586;12.854;2023-04-03T09:33:48;33.90;;;7.97;;
14599;SDS011;7386;45.586;12.854;2023-04-03T09:39:04;20.13;;;4.10;;
14599;SDS011;7386;45.586;12.854;2023-04-03T09:41:32;28.87;;;10.13;;
14599;SDS011;7386;45.586;12.854;2023-04-03T09:44:01;27.10;;;7.73;;
14599;SDS011;7386;45.586;12.854;2023-04-03T09:46:31;15.37;;;4.70;;
14599;SDS011;7386;45.586;12.854;2023-04-03T09:49:02;23.00;;;8.63;;
14599;SDS011;7386;45.586;12.854;2023-04-03T09:51:35;27.13;;;7.97;;
14599;SDS011;7386;45.586;12.854;2023-04-03T09:54:24;27.83;;;6.70;;
14599;SDS011;7386;45.586;12.854;2023-04-03T09:56:53;23.77;;;10.60;;
14599;SDS011;7386;45.586;12.854;2023-04-03T09:59:23;26.40;;;8.67;;
14599;SDS011;7386;45.586;12.854;2023-04-03T10:02:00;18.60;;;5.13;;
14599;SDS011;7386;45.586;12.854;2023-04-03T10:04:36;42.10;;;10.73;;
14599;SDS011;7386;45.586;12.854;2023-04-03T10:07:25;39.90;;;12.30;;
14599;SDS011;7386;45.586;12.854;2023-04-03T10:09:54;38.97;;;8.07;;
14599;SDS011;7386;45.586;12.854;2023-04-03T10:12:23;28.00;;;11.10;;
14599;SDS011;7386;45.586;12.854;2023-04-03T10:14:55;26.60;;;10.33;;
14599;SDS011;7386;45.586;12.854;2023-04-03T10:17:28;28.97;;;6.70;;
14599;SDS011;7386;45.586;12.854;2023-04-03T10:20:02;36.00;;;11.37;;
14599;SDS011;7386;45.586;12.854;2023-04-03T10:22:33;47.87;;;14.63;;
14599;SDS011;7386;45.586;12.854;2023-04-03T10:25:09;21.27;;;7.27;;
14599;SDS011;7386;45.586;12.854;2023-04-03T10:27:44;27.53;;;8.83;;
14599;SDS011;7386;45.586;12.854;2023-04-03T10:30:19;32.00;;;11.17;;
14599;SDS011;7386;45.586;12.854;2023-04-03T10:32:54;21.73;;;6.50;;
14599;SDS011;7386;45.586;12.854;2023-04-03T10:35:30;25.97;;;5.80;;
14599;SDS011;7386;45.586;12.854;2023-04-03T10:38:04;43.33;;;16.87;;
14599;SDS011;7386;45.586;12.854;2023-04-03T10:40:38;24.60;;;7.80;;
14599;SDS011;7386;45.586;12.854;2023-04-03T10:43:13;39.93;;;14.90;;
14599;SDS011;7386;45.586;12.854;2023-04-03T10:45:56;35.27;;;16.87;;
14599;SDS011;7386;45.586;12.854;2023-04-03T10:48:35;32.77;;;8.23;;
14599;SDS011;7386;45.586;12.854;2023-04-03T10:51:11;41.60;;;13.07;;
14599;SDS011;7386;45.586;12.854;2023-04-03T10:53:43;31.57;;;8.37;;
14599;SDS011;7386;45.586;12.854;2023-04-03T10:56:13;28.00;;;8.33;;
14599;SDS011;7386;45.586;12.854;2023-04-03T10:58:44;49.97;;;18.53;;
14599;SDS011;7386;45.586;12.854;2023-04-03T11:01:14;27.07;;;8.63;;
14599;SDS011;7386;45.586;12.854;2023-04-03T11:03:47;32.93;;;11.57;;
14599;SDS011;7386;45.586;12.854;2023-04-03T11:06:18;33.23;;;12.50;;
14599;SDS011;7386;45.586;12.854;2023-04-03T11:08:50;35.53;;;7.53;;
14599;SDS011;7386;45.586;12.854;2023-04-03T11:11:22;42.20;;;14.17;;
14599;SDS011;7386;45.586;12.854;2023-04-03T11:13:54;38.10;;;13.87;;
14599;SDS011;7386;45.586;12.854;2023-04-03T11:16:24;28.20;;;9.30;;
14599;SDS011;7386;45.586;12.854;2023-04-03T11:18:56;40.10;;;18.07;;
14599;SDS011;7386;45.586;12.854;2023-04-03T11:21:27;23.63;;;8.00;;
14599;SDS011;7386;45.586;12.854;2023-04-03T11:23:57;26.87;;;9.17;;
14599;SDS011;7386;45.586;12.854;2023-04-03T11:26:27;39.03;;;13.50;;
14599;SDS011;7386;45.586;12.854;2023-04-03T11:28:57;14.43;;;6.00;;
14599;SDS011;7386;45.586;12.854;2023-04-03T11:31:32;31.00;;;13.87;;
14599;SDS011;7386;45.586;12.854;2023-04-03T11:34:08;27.47;;;11.87;;
14599;SDS011;7386;45.586;12.854;2023-04-03T11:36:42;37.90;;;7.60;;
14599;SDS011;7386;45.586;12.854;2023-04-03T11:39:17;35.47;;;9.70;;
14599;SDS011;7386;45.586;12.854;2023-04-03T11:41:47;28.73;;;5.90;;
14599;SDS011;7386;45.586;12.854;2023-04-03T11:44:29;30.30;;;9.97;;
14599;SDS011;7386;45.586;12.854;2023-04-03T11:46:59;32.80;;;11.03;;
14599;SDS011;7386;45.586;12.854;2023-04-03T11:52:20;32.33;;;13.37;;
14599;SDS011;7386;45.586;12.854;2023-04-03T11:58:03;30.03;;;11.77;;
14599;SDS011;7386;45.586;12.854;2023-04-03T12:00:49;33.00;;;12.83;;
14599;SDS011;7386;45.586;12.854;2023-04-03T12:03:30;31.37;;;13.03;;
14599;SDS011;7386;45.586;12.854;2023-04-03T12:08:46;24.13;;;10.67;;
14599;SDS011;7386;45.586;12.854;2023-04-03T12:11:15;34.57;;;14.73;;
14599;SDS011;7386;45.586;12.854;2023-04-03T12:14:01;25.23;;;12.33;;
14599;SDS011;7386;45.586;12.854;2023-04-03T12:16:32;20.33;;;7.63;;
14599;SDS011;7386;45.586;12.854;2023-04-03T12:19:02;40.97;;;20.77;;
14599;SDS011;7386;45.586;12.854;2023-04-03T12:24:25;29.10;;;12.80;;
14599;SDS011;7386;45.586;12.854;2023-04-03T12:27:05;27.03;;;11.90;;
14599;SDS011;7386;45.586;12.854;2023-04-03T12:29:38;19.07;;;10.10;;
14599;SDS011;7386;45.586;12.854;2023-04-03T12:32:12;41.47;;;20.00;;
14599;SDS011;7386;45.586;12.854;2023-04-03T12:34:48;38.13;;;21.00;;
14599;SDS011;7386;45.586;12.854;2023-04-03T12:37:22;34.93;;;20.00;;
14599;SDS011;7386;45.586;12.854;2023-04-03T12:39:56;45.43;;;23.63;;
14599;SDS011;7386;45.586;12.854;2023-04-03T12:42:32;35.60;;;15.57;;
14599;SDS011;7386;45.586;12.854;2023-04-03T12:45:09;56.13;;;29.43;;
14599;SDS011;7386;45.586;12.854;2023-04-03T12:47:42;38.13;;;20.93;;
14599;SDS011;7386;45.586;12.854;2023-04-03T12:50:18;43.47;;;23.20;;
14599;SDS011;7386;45.586;12.854;2023-04-03T12:52:51;50.73;;;28.87;;
14599;SDS011;7386;45.586;12.854;2023-04-03T12:55:23;32.23;;;14.90;;
14599;SDS011;7386;45.586;12.854;2023-04-03T12:57:52;29.00;;;14.63;;
14599;SDS011;7386;45.586;12.854;2023-04-03T13:00:25;63.40;;;37.03;;
14599;SDS011;7386;45.586;12.854;2023-04-03T13:02:54;42.53;;;21.90;;
14599;SDS011;7386;45.586;12.854;2023-04-03T13:05:23;20.33;;;8.80;;
14599;SDS011;7386;45.586;12.854;2023-04-03T13:07:54;42.13;;;20.77;;
14599;SDS011;7386;45.586;12.854;2023-04-03T13:10:25;48.30;;;24.60;;
14599;SDS011;7386;45.586;12.854;2023-04-03T13:12:54;29.53;;;16.87;;
14599;SDS011;7386;45.586;12.854;2023-04-03T13:15:24;45.43;;;23.87;;
14599;SDS011;7386;45.586;12.854;2023-04-03T13:17:53;53.03;;;30.17;;
14599;SDS011;7386;45.586;12.854;2023-04-03T13:20:24;31.73;;;17.17;;
14599;SDS011;7386;45.586;12.854;2023-04-03T13:22:55;27.13;;;14.70;;
14599;SDS011;7386;45.586;12.854;2023-04-03T13:25:26;40.53;;;24.00;;
14599;SDS011;7386;45.586;12.854;2023-04-03T13:27:56;48.33;;;28.27;;
14599;SDS011;7386;45.586;12.854;2023-04-03T13:30:39;61.50;;;35.00;;
14599;SDS011;7386;45.586;12.854;2023-04-03T13:33:19;38.43;;;22.30;;
14599;SDS011;7386;45.586;12.854;2023-04-03T13:35:54;28.63;;;15.50;;
14599;SDS011;7386;45.586;12.854;2023-04-03T13:38:23;42.77;;;23.53;;
14599;SDS011;7386;45.586;12.854;2023-04-03T13:40:54;42.53;;;24.17;;
14599;SDS011;7386;45.586;12.854;2023-04-03T13:43:24;47.73;;;25.70;;
14599;SDS011;7386;45.586;12.854;2023-04-03T13:45:58;32.10;;;13.50;;
14599;SDS011;7386;45.586;12.854;2023-04-03T13:48:26;32.97;;;17.03;;
14599;SDS011;7386;45.586;12.854;2023-04-03T13:50:57;50.10;;;29.57;;
14599;SDS011;7386;45.586;12.854;2023-04-03T13:53:27;42.93;;;23.53;;
14599;SDS011;7386;45.586;12.854;2023-04-03T13:56:04;28.73;;;14.20;;
14599;SDS011;7386;45.586;12.854;2023-04-03T13:58:34;29.73;;;12.57;;
14599;SDS011;7386;45.586;12.854;2023-04-03T14:01:08;44.23;;;21.43;;
14599;SDS011;7386;45.586;12.854;2023-04-03T14:03:40;38.00;;;19.47;;
14599;SDS011;7386;45.586;12.854;2023-04-03T14:06:10;46.93;;;24.87;;
14599;SDS011;7386;45.586;12.854;2023-04-03T14:08:39;27.03;;;11.47;;
14599;SDS011;7386;45.586;12.854;2023-04-03T14:11:13;23.83;;;8.67;;
14599;SDS011;7386;45.586;12.854;2023-04-03T14:13:42;36.90;;;16.50;;
14599;SDS011;7386;45.586;12.854;2023-04-03T14:16:15;40.00;;;22.20;;
14599;SDS011;7386;45.586;12.854;2023-04-03T14:18:44;42.73;;;22.93;;
14599;SDS011;7386;45.586;12.854;2023-04-03T14:21:13;54.90;;;29.90;;
14599;SDS011;7386;45.586;12.854;2023-04-03T14:23:42;40.90;;;19.37;;
14599;SDS011;7386;45.586;12.854;2023-04-03T14:26:13;33.37;;;19.40;;
14599;SDS011;7386;45.586;12.854;2023-04-03T14:28:44;44.27;;;23.20;;
14599;SDS011;7386;45.586;12.854;2023-04-03T14:31:14;50.13;;;29.13;;
14599;SDS011;7386;45.586;12.854;2023-04-03T14:33:44;32.40;;;17.67;;
14599;SDS011;7386;45.586;12.854;2023-04-03T14:36:13;29.77;;;14.43;;
14599;SDS011;7386;45.586;12.854;2023-04-03T14:38:43;55.77;;;29.30;;
14599;SDS011;7386;45.586;12.854;2023-04-03T14:41:14;51.23;;;25.07;;
14599;SDS011;7386;45.586;12.854;2023-04-03T14:43:44;37.27;;;20.17;;
14599;SDS011;7386;45.586;12.854;2023-04-03T14:46:13;56.03;;;32.87;;
14599;SDS011;7386;45.586;12.854;2023-04-03T14:48:42;52.73;;;28.43;;
14599;SDS011;7386;45.586;12.854;2023-04-03T14:51:11;37.43;;;18.97;;
14599;SDS011;7386;45.586;12.854;2023-04-03T14:53:40;55.23;;;31.20;;
14599;SDS011;7386;45.586;12.854;2023-04-03T14:56:10;51.70;;;30.13;;
14599;SDS011;7386;45.586;12.854;2023-04-03T14:58:41;32.80;;;16.63;;
14599;SDS011;7386;45.586;12.854;2023-04-03T15:01:10;54.13;;;26.60;;
14599;SDS011;7386;45.586;12.854;2023-04-03T15:03:40;64.90;;;37.13;;
14599;SDS011;7386;45.586;12.854;2023-04-03T15:06:09;52.17;;;29.07;;
14599;SDS011;7386;45.586;12.854;2023-04-03T15:08:39;37.00;;;16.53;;